sensor_id;sensor_type;location;lat;lon;timestamp;P1;P2;P0
75946;PMS5003;64628;50.104;14.614;2024-02-26T00:02:21;106;86;
75946;PMS5003;64628;50.104;14.614;2024-02-26T00:04:46;112;91;
75946;PMS5003;64628;50.104;14.614;2024-02-26T00:07:12;100;91;
75946;PMS5003;64628;50.104;14.614;2024-02-26T00:09:37;102;83;
75946;PMS5003;64628;50.104;14.614;2024-02-26T00:12:03;109;88;
75946;PMS5003;64628;50.104;14.614;2024-02-26T00:14:28;101;82;
75946;PMS5003;64628;50.104;14.614;2024-02-26T00:16:53;108;91;
75946;PMS5003;64628;50.104;14.614;2024-02-26T00:19:19;97;81;
75946;PMS5003;64628;50.104;14.614;2024-02-26T00:21:44;115;91;
75946;PMS5003;64628;50.104;14.614;2024-02-26T00:24:09;118;91;
75946;PMS5003;64628;50.104;14.614;2024-02-26T00:26:35;92;78;
75946;PMS5003;64628;50.104;14.614;2024-02-26T00:29:01;104;86;
75946;PMS5003;64628;50.104;14.614;2024-02-26T00:31:26;104;86;
75946;PMS5003;64628;50.104;14.614;2024-02-26T00:33:51;107;83;
75946;PMS5003;64628;50.104;14.614;2024-02-26T00:36:17;116;84;
75946;PMS5003;64628;50.104;14.614;2024-02-26T00:38:42;115;88;
75946;PMS5003;64628;50.104;14.614;2024-02-26T00:41:07;108;89;
75946;PMS5003;64628;50.104;14.614;2024-02-26T00:43:32;101;81;
75946;PMS5003;64628;50.104;14.614;2024-02-26T00:45:58;96;79;
75946;PMS5003;64628;50.104;14.614;2024-02-26T00:48:24;100;80;
75946;PMS5003;64628;50.104;14.614;2024-02-26T00:50:49;96;80;
75946;PMS5003;64628;50.104;14.614;2024-02-26T00:53:15;112;85;
75946;PMS5003;64628;50.104;14.614;2024-02-26T00:55:40;95;73;
75946;PMS5003;64628;50.104;14.614;2024-02-26T00:58:05;89;73;
75946;PMS5003;64628;50.104;14.614;2024-02-26T01:00:30;101;83;
75946;PMS5003;64628;50.104;14.614;2024-02-26T01:02:56;106;79;
75946;PMS5003;64628;50.104;14.614;2024-02-26T01:05:21;96;82;
75946;PMS5003;64628;50.104;14.614;2024-02-26T01:07:47;89;70;
75946;PMS5003;64628;50.104;14.614;2024-02-26T01:10:12;89;70;
75946;PMS5003;64628;50.104;14.614;2024-02-26T01:12:37;89;68;
75946;PMS5003;64628;50.104;14.614;2024-02-26T01:15:03;100;84;
75946;PMS5003;64628;50.104;14.614;2024-02-26T01:17:28;114;88;
75946;PMS5003;64628;50.104;14.614;2024-02-26T01:19:54;97;79;
75946;PMS5003;64628;50.104;14.614;2024-02-26T01:22:20;93;76;
75946;PMS5003;64628;50.104;14.614;2024-02-26T01:24:46;83;75;
75946;PMS5003;64628;50.104;14.614;2024-02-26T01:27:11;102;78;
75946;PMS5003;64628;50.104;14.614;2024-02-26T01:29:36;89;77;
75946;PMS5003;64628;50.104;14.614;2024-02-26T01:32:02;88;79;
75946;PMS5003;64628;50.104;14.614;2024-02-26T01:34:27;88;81;
75946;PMS5003;64628;50.104;14.614;2024-02-26T01:36:53;97;80;
75946;PMS5003;64628;50.104;14.614;2024-02-26T01:39:18;94;82;
75946;PMS5003;64628;50.104;14.614;2024-02-26T01:41:44;109;88;
75946;PMS5003;64628;50.104;14.614;2024-02-26T01:44:11;96;85;
75946;PMS5003;64628;50.104;14.614;2024-02-26T01:46:35;97;85;
75946;PMS5003;64628;50.104;14.614;2024-02-26T01:49:02;96;76;
75946;PMS5003;64628;50.104;14.614;2024-02-26T01:51:26;108;81;
75946;PMS5003;64628;50.104;14.614;2024-02-26T01:53:51;111;84;
75946;PMS5003;64628;50.104;14.614;2024-02-26T01:56:17;109;85;
75946;PMS5003;64628;50.104;14.614;2024-02-26T01:58:43;105;91;
75946;PMS5003;64628;50.104;14.614;2024-02-26T02:01:08;118;87;
75946;PMS5003;64628;50.104;14.614;2024-02-26T02:03:34;119;96;
75946;PMS5003;64628;50.104;14.614;2024-02-26T02:05:59;127;100;
75946;PMS5003;64628;50.104;14.614;2024-02-26T02:08:25;95;82;
75946;PMS5003;64628;50.104;14.614;2024-02-26T02:10:51;112;94;
75946;PMS5003;64628;50.104;14.614;2024-02-26T02:13:16;110;85;
75946;PMS5003;64628;50.104;14.614;2024-02-26T02:15:41;114;96;
75946;PMS5003;64628;50.104;14.614;2024-02-26T02:18:07;119;96;
75946;PMS5003;64628;50.104;14.614;2024-02-26T02:20:32;108;88;
75946;PMS5003;64628;50.104;14.614;2024-02-26T02:22:58;112;90;
75946;PMS5003;64628;50.104;14.614;2024-02-26T02:25:24;104;88;
75946;PMS5003;64628;50.104;14.614;2024-02-26T02:27:49;131;95;
75946;PMS5003;64628;50.104;14.614;2024-02-26T02:30:14;106;81;
75946;PMS5003;64628;50.104;14.614;2024-02-26T02:32:40;124;95;
75946;PMS5003;64628;50.104;14.614;2024-02-26T02:35:06;127;90;
75946;PMS5003;64628;50.104;14.614;2024-02-26T02:37:32;115;89;
75946;PMS5003;64628;50.104;14.614;2024-02-26T02:39:57;118;82;
75946;PMS5003;64628;50.104;14.614;2024-02-26T02:42:23;109;94;
75946;PMS5003;64628;50.104;14.614;2024-02-26T02:44:48;110;97;
75946;PMS5003;64628;50.104;14.614;2024-02-26T02:47:14;120;98;
75946;PMS5003;64628;50.104;14.614;2024-02-26T02:49:39;107;94;
75946;PMS5003;64628;50.104;14.614;2024-02-26T02:52:05;112;94;
75946;PMS5003;64628;50.104;14.614;2024-02-26T02:54:30;108;87;
75946;PMS5003;64628;50.104;14.614;2024-02-26T02:56:55;93;78;
75946;PMS5003;64628;50.104;14.614;2024-02-26T02:59:21;100;84;
75946;PMS5003;64628;50.104;14.614;2024-02-26T03:01:47;98;85;
75946;PMS5003;64628;50.104;14.614;2024-02-26T03:04:12;110;88;
75946;PMS5003;64628;50.104;14.614;2024-02-26T03:06:38;99;77;
75946;PMS5003;64628;50.104;14.614;2024-02-26T03:09:03;97;81;
75946;PMS5003;64628;50.104;14.614;2024-02-26T03:11:29;107;81;
75946;PMS5003;64628;50.104;14.614;2024-02-26T03:13:54;91;81;
75946;PMS5003;64628;50.104;14.614;2024-02-26T03:16:20;72;63;
75946;PMS5003;64628;50.104;14.614;2024-02-26T03:18:46;91;76;
75946;PMS5003;64628;50.104;14.614;2024-02-26T03:21:11;75;65;
75946;PMS5003;64628;50.104;14.614;2024-02-26T03:23:37;102;79;
75946;PMS5003;64628;50.104;14.614;2024-02-26T03:26:03;86;73;
75946;PMS5003;64628;50.104;14.614;2024-02-26T03:28:28;94;75;
75946;PMS5003;64628;50.104;14.614;2024-02-26T03:30:54;76;62;
75946;PMS5003;64628;50.104;14.614;2024-02-26T03:33:19;79;68;
75946;PMS5003;64628;50.104;14.614;2024-02-26T03:35:45;92;71;
75946;PMS5003;64628;50.104;14.614;2024-02-26T03:38:10;72;61;
75946;PMS5003;64628;50.104;14.614;2024-02-26T03:40:36;81;68;
75946;PMS5003;64628;50.104;14.614;2024-02-26T03:43:02;79;63;
75946;PMS5003;64628;50.104;14.614;2024-02-26T03:45:27;83;65;
75946;PMS5003;64628;50.104;14.614;2024-02-26T03:47:53;73;65;
75946;PMS5003;64628;50.104;14.614;2024-02-26T03:50:18;76;63;
75946;PMS5003;64628;50.104;14.614;2024-02-26T03:52:43;69;57;
75946;PMS5003;64628;50.104;14.614;2024-02-26T03:55:08;61;54;
75946;PMS5003;64628;50.104;14.614;2024-02-26T03:57:34;77;60;
75946;PMS5003;64628;50.104;14.614;2024-02-26T03:59:59;74;62;
75946;PMS5003;64628;50.104;14.614;2024-02-26T04:02:25;85;72;
75946;PMS5003;64628;50.104;14.614;2024-02-26T04:04:50;73;63;
75946;PMS5003;64628;50.104;14.614;2024-02-26T04:07:16;84;68;
75946;PMS5003;64628;50.104;14.614;2024-02-26T04:09:41;90;75;
75946;PMS5003;64628;50.104;14.614;2024-02-26T04:12:07;78;61;
75946;PMS5003;64628;50.104;14.614;2024-02-26T04:14:32;71;57;
75946;PMS5003;64628;50.104;14.614;2024-02-26T04:16:57;84;61;
75946;PMS5003;64628;50.104;14.614;2024-02-26T04:19:23;81;61;
75946;PMS5003;64628;50.104;14.614;2024-02-26T04:21:48;77;65;
75946;PMS5003;64628;50.104;14.614;2024-02-26T04:24:13;72;61;
75946;PMS5003;64628;50.104;14.614;2024-02-26T04:26:38;88;68;
75946;PMS5003;64628;50.104;14.614;2024-02-26T04:29:03;68;58;
75946;PMS5003;64628;50.104;14.614;2024-02-26T04:31:29;68;58;
75946;PMS5003;64628;50.104;14.614;2024-02-26T04:33:55;89;61;
75946;PMS5003;64628;50.104;14.614;2024-02-26T04:36:20;71;61;
75946;PMS5003;64628;50.104;14.614;2024-02-26T04:38:46;80;62;
75946;PMS5003;64628;50.104;14.614;2024-02-26T04:41:11;71;55;
75946;PMS5003;64628;50.104;14.614;2024-02-26T04:43:37;73;63;
75946;PMS5003;64628;50.104;14.614;2024-02-26T04:46:01;71;62;
75946;PMS5003;64628;50.104;14.614;2024-02-26T04:48:27;77;55;
75946;PMS5003;64628;50.104;14.614;2024-02-26T04:50:52;71;60;
75946;PMS5003;64628;50.104;14.614;2024-02-26T04:53:18;80;72;
75946;PMS5003;64628;50.104;14.614;2024-02-26T04:55:43;93;76;
75946;PMS5003;64628;50.104;14.614;2024-02-26T04:58:08;80;67;
75946;PMS5003;64628;50.104;14.614;2024-02-26T05:00:33;86;70;
75946;PMS5003;64628;50.104;14.614;2024-02-26T05:02:59;63;55;
75946;PMS5003;64628;50.104;14.614;2024-02-26T05:05:24;79;66;
75946;PMS5003;64628;50.104;14.614;2024-02-26T05:07:50;87;70;
75946;PMS5003;64628;50.104;14.614;2024-02-26T05:10:16;94;71;
75946;PMS5003;64628;50.104;14.614;2024-02-26T05:12:41;141;111;
75946;PMS5003;64628;50.104;14.614;2024-02-26T05:15:07;157;126;
75946;PMS5003;64628;50.104;14.614;2024-02-26T05:17:32;165;119;
75946;PMS5003;64628;50.104;14.614;2024-02-26T05:19:57;128;114;
75946;PMS5003;64628;50.104;14.614;2024-02-26T05:22:23;106;87;
75946;PMS5003;64628;50.104;14.614;2024-02-26T05:24:48;102;76;
75946;PMS5003;64628;50.104;14.614;2024-02-26T05:27:13;89;78;
75946;PMS5003;64628;50.104;14.614;2024-02-26T05:29:38;97;80;
75946;PMS5003;64628;50.104;14.614;2024-02-26T05:32:04;84;65;
75946;PMS5003;64628;50.104;14.614;2024-02-26T05:34:28;97;71;
75946;PMS5003;64628;50.104;14.614;2024-02-26T05:36:53;103;79;
75946;PMS5003;64628;50.104;14.614;2024-02-26T05:39:19;98;76;
75946;PMS5003;64628;50.104;14.614;2024-02-26T05:41:44;86;71;
75946;PMS5003;64628;50.104;14.614;2024-02-26T05:44:10;80;68;
75946;PMS5003;64628;50.104;14.614;2024-02-26T05:46:36;82;65;
75946;PMS5003;64628;50.104;14.614;2024-02-26T05:49:01;129;106;
75946;PMS5003;64628;50.104;14.614;2024-02-26T05:51:26;133;108;
75946;PMS5003;64628;50.104;14.614;2024-02-26T05:53:52;114;91;
75946;PMS5003;64628;50.104;14.614;2024-02-26T05:56:17;123;100;
75946;PMS5003;64628;50.104;14.614;2024-02-26T05:58:42;100;81;
75946;PMS5003;64628;50.104;14.614;2024-02-26T06:01:07;119;96;
75946;PMS5003;64628;50.104;14.614;2024-02-26T06:03:33;100;88;
75946;PMS5003;64628;50.104;14.614;2024-02-26T06:05:59;132;98;
75946;PMS5003;64628;50.104;14.614;2024-02-26T06:08:24;130;97;
75946;PMS5003;64628;50.104;14.614;2024-02-26T06:10:49;127;99;
75946;PMS5003;64628;50.104;14.614;2024-02-26T06:13:15;109;87;
75946;PMS5003;64628;50.104;14.614;2024-02-26T06:15:40;117;93;
75946;PMS5003;64628;50.104;14.614;2024-02-26T06:18:05;117;91;
75946;PMS5003;64628;50.104;14.614;2024-02-26T06:20:31;100;87;
75946;PMS5003;64628;50.104;14.614;2024-02-26T06:22:56;107;82;
75946;PMS5003;64628;50.104;14.614;2024-02-26T06:25:22;88;67;
75946;PMS5003;64628;50.104;14.614;2024-02-26T06:27:47;84;72;
75946;PMS5003;64628;50.104;14.614;2024-02-26T06:30:12;75;62;
75946;PMS5003;64628;50.104;14.614;2024-02-26T06:32:37;88;74;
75946;PMS5003;64628;50.104;14.614;2024-02-26T06:35:03;101;88;
75946;PMS5003;64628;50.104;14.614;2024-02-26T06:37:28;87;73;
75946;PMS5003;64628;50.104;14.614;2024-02-26T06:39:54;80;64;
75946;PMS5003;64628;50.104;14.614;2024-02-26T06:42:19;91;71;
75946;PMS5003;64628;50.104;14.614;2024-02-26T06:44:45;91;68;
75946;PMS5003;64628;50.104;14.614;2024-02-26T06:47:10;92;71;
75946;PMS5003;64628;50.104;14.614;2024-02-26T06:49:36;77;72;
75946;PMS5003;64628;50.104;14.614;2024-02-26T06:52:02;84;68;
75946;PMS5003;64628;50.104;14.614;2024-02-26T06:54:28;82;73;
75946;PMS5003;64628;50.104;14.614;2024-02-26T06:56:53;84;68;
75946;PMS5003;64628;50.104;14.614;2024-02-26T06:59:19;87;69;
75946;PMS5003;64628;50.104;14.614;2024-02-26T07:01:44;80;66;
75946;PMS5003;64628;50.104;14.614;2024-02-26T07:04:10;97;67;
75946;PMS5003;64628;50.104;14.614;2024-02-26T07:06:35;91;74;
75946;PMS5003;64628;50.104;14.614;2024-02-26T07:09:00;81;66;
75946;PMS5003;64628;50.104;14.614;2024-02-26T07:11:25;76;59;
75946;PMS5003;64628;50.104;14.614;2024-02-26T07:13:51;77;70;
75946;PMS5003;64628;50.104;14.614;2024-02-26T07:16:16;111;81;
75946;PMS5003;64628;50.104;14.614;2024-02-26T07:18:41;98;83;
75946;PMS5003;64628;50.104;14.614;2024-02-26T07:21:07;97;81;
75946;PMS5003;64628;50.104;14.614;2024-02-26T07:23:32;102;85;
75946;PMS5003;64628;50.104;14.614;2024-02-26T07:25:58;101;80;
75946;PMS5003;64628;50.104;14.614;2024-02-26T07:28:24;106;80;
75946;PMS5003;64628;50.104;14.614;2024-02-26T07:30:49;97;76;
75946;PMS5003;64628;50.104;14.614;2024-02-26T07:33:15;97;83;
75946;PMS5003;64628;50.104;14.614;2024-02-26T07:35:40;95;84;
75946;PMS5003;64628;50.104;14.614;2024-02-26T07:38:06;106;80;
75946;PMS5003;64628;50.104;14.614;2024-02-26T07:40:31;99;82;
75946;PMS5003;64628;50.104;14.614;2024-02-26T07:42:57;99;79;
75946;PMS5003;64628;50.104;14.614;2024-02-26T07:45:22;85;75;
75946;PMS5003;64628;50.104;14.614;2024-02-26T07:47:48;96;71;
75946;PMS5003;64628;50.104;14.614;2024-02-26T07:50:14;95;83;
75946;PMS5003;64628;50.104;14.614;2024-02-26T07:52:39;94;74;
75946;PMS5003;64628;50.104;14.614;2024-02-26T07:55:05;109;89;
75946;PMS5003;64628;50.104;14.614;2024-02-26T07:57:31;126;110;
75946;PMS5003;64628;50.104;14.614;2024-02-26T07:59:55;71;66;
75946;PMS5003;64628;50.104;14.614;2024-02-26T08:02:20;105;81;
75946;PMS5003;64628;50.104;14.614;2024-02-26T08:04:46;77;68;
75946;PMS5003;64628;50.104;14.614;2024-02-26T08:07:12;139;127;
75946;PMS5003;64628;50.104;14.614;2024-02-26T08:09:37;107;84;
75946;PMS5003;64628;50.104;14.614;2024-02-26T08:12:03;101;83;
75946;PMS5003;64628;50.104;14.614;2024-02-26T08:14:28;98;78;
75946;PMS5003;64628;50.104;14.614;2024-02-26T08:16:54;99;84;
75946;PMS5003;64628;50.104;14.614;2024-02-26T08:19:19;90;79;
75946;PMS5003;64628;50.104;14.614;2024-02-26T08:21:44;83;73;
75946;PMS5003;64628;50.104;14.614;2024-02-26T08:24:10;81;66;
75946;PMS5003;64628;50.104;14.614;2024-02-26T08:26:35;86;69;
75946;PMS5003;64628;50.104;14.614;2024-02-26T08:29:00;76;66;
75946;PMS5003;64628;50.104;14.614;2024-02-26T08:31:26;83;68;
75946;PMS5003;64628;50.104;14.614;2024-02-26T08:33:51;64;56;
75946;PMS5003;64628;50.104;14.614;2024-02-26T08:36:17;85;65;
75946;PMS5003;64628;50.104;14.614;2024-02-26T08:38:43;80;64;
75946;PMS5003;64628;50.104;14.614;2024-02-26T08:41:08;86;71;
75946;PMS5003;64628;50.104;14.614;2024-02-26T08:43:34;83;68;
75946;PMS5003;64628;50.104;14.614;2024-02-26T08:45:59;86;74;
75946;PMS5003;64628;50.104;14.614;2024-02-26T08:48:24;80;71;
75946;PMS5003;64628;50.104;14.614;2024-02-26T08:50:50;75;61;
75946;PMS5003;64628;50.104;14.614;2024-02-26T08:53:15;75;63;
75946;PMS5003;64628;50.104;14.614;2024-02-26T08:55:40;65;56;
75946;PMS5003;64628;50.104;14.614;2024-02-26T08:58:06;83;66;
75946;PMS5003;64628;50.104;14.614;2024-02-26T09:00:31;84;60;
75946;PMS5003;64628;50.104;14.614;2024-02-26T09:02:57;89;77;
75946;PMS5003;64628;50.104;14.614;2024-02-26T09:05:22;80;65;
75946;PMS5003;64628;50.104;14.614;2024-02-26T09:07:47;78;64;
75946;PMS5003;64628;50.104;14.614;2024-02-26T09:10:13;67;54;
75946;PMS5003;64628;50.104;14.614;2024-02-26T09:12:38;70;57;
75946;PMS5003;64628;50.104;14.614;2024-02-26T09:15:04;70;60;
75946;PMS5003;64628;50.104;14.614;2024-02-26T09:17:29;70;58;
75946;PMS5003;64628;50.104;14.614;2024-02-26T09:19:55;71;52;
75946;PMS5003;64628;50.104;14.614;2024-02-26T09:22:20;76;67;
75946;PMS5003;64628;50.104;14.614;2024-02-26T09:24:45;68;57;
75946;PMS5003;64628;50.104;14.614;2024-02-26T09:27:11;71;63;
75946;PMS5003;64628;50.104;14.614;2024-02-26T09:29:36;64;55;
75946;PMS5003;64628;50.104;14.614;2024-02-26T09:32:02;73;59;
75946;PMS5003;64628;50.104;14.614;2024-02-26T09:34:27;77;67;
75946;PMS5003;64628;50.104;14.614;2024-02-26T09:36:52;61;57;
75946;PMS5003;64628;50.104;14.614;2024-02-26T09:39:18;71;64;
75946;PMS5003;64628;50.104;14.614;2024-02-26T09:41:44;72;55;
75946;PMS5003;64628;50.104;14.614;2024-02-26T09:44:09;63;52;
75946;PMS5003;64628;50.104;14.614;2024-02-26T09:46:35;112;106;
75946;PMS5003;64628;50.104;14.614;2024-02-26T09:49:00;79;69;
75946;PMS5003;64628;50.104;14.614;2024-02-26T09:51:25;83;80;
75946;PMS5003;64628;50.104;14.614;2024-02-26T09:53:51;98;86;
75946;PMS5003;64628;50.104;14.614;2024-02-26T09:56:16;79;64;
75946;PMS5003;64628;50.104;14.614;2024-02-26T09:58:41;133;130;
75946;PMS5003;64628;50.104;14.614;2024-02-26T10:01:09;107;99;
75946;PMS5003;64628;50.104;14.614;2024-02-26T10:03:34;135;128;
75946;PMS5003;64628;50.104;14.614;2024-02-26T10:05:59;44;41;
75946;PMS5003;64628;50.104;14.614;2024-02-26T10:08:24;55;43;
75946;PMS5003;64628;50.104;14.614;2024-02-26T10:10:49;56;46;
75946;PMS5003;64628;50.104;14.614;2024-02-26T10:13:15;69;48;
75946;PMS5003;64628;50.104;14.614;2024-02-26T10:15:41;56;48;
75946;PMS5003;64628;50.104;14.614;2024-02-26T10:18:06;62;52;
75946;PMS5003;64628;50.104;14.614;2024-02-26T10:20:32;86;82;
75946;PMS5003;64628;50.104;14.614;2024-02-26T10:22:57;56;51;
75946;PMS5003;64628;50.104;14.614;2024-02-26T10:25:22;79;62;
75946;PMS5003;64628;50.104;14.614;2024-02-26T10:27:48;68;57;
75946;PMS5003;64628;50.104;14.614;2024-02-26T10:30:16;78;59;
75946;PMS5003;64628;50.104;14.614;2024-02-26T10:32:39;67;56;
75946;PMS5003;64628;50.104;14.614;2024-02-26T10:35:05;66;61;
75946;PMS5003;64628;50.104;14.614;2024-02-26T10:37:30;78;65;
75946;PMS5003;64628;50.104;14.614;2024-02-26T10:39:56;86;79;
75946;PMS5003;64628;50.104;14.614;2024-02-26T10:42:21;152;142;
75946;PMS5003;64628;50.104;14.614;2024-02-26T10:44:47;88;65;
75946;PMS5003;64628;50.104;14.614;2024-02-26T10:47:13;100;85;
75946;PMS5003;64628;50.104;14.614;2024-02-26T10:49:38;118;114;
75946;PMS5003;64628;50.104;14.614;2024-02-26T10:52:04;203;186;
75946;PMS5003;64628;50.104;14.614;2024-02-26T10:54:29;155;144;
75946;PMS5003;64628;50.104;14.614;2024-02-26T10:56:56;99;90;
75946;PMS5003;64628;50.104;14.614;2024-02-26T10:59:20;167;154;
75946;PMS5003;64628;50.104;14.614;2024-02-26T11:01:46;126;123;
75946;PMS5003;64628;50.104;14.614;2024-02-26T11:04:11;115;103;
75946;PMS5003;64628;50.104;14.614;2024-02-26T11:06:37;107;99;
75946;PMS5003;64628;50.104;14.614;2024-02-26T11:09:03;78;71;
75946;PMS5003;64628;50.104;14.614;2024-02-26T11:11:29;88;80;
75946;PMS5003;64628;50.104;14.614;2024-02-26T11:13:54;83;69;
75946;PMS5003;64628;50.104;14.614;2024-02-26T11:16:21;105;86;
75946;PMS5003;64628;50.104;14.614;2024-02-26T11:18:46;108;98;
75946;PMS5003;64628;50.104;14.614;2024-02-26T11:21:11;111;97;
75946;PMS5003;64628;50.104;14.614;2024-02-26T11:23:37;126;116;
75946;PMS5003;64628;50.104;14.614;2024-02-26T11:26:03;110;99;
75946;PMS5003;64628;50.104;14.614;2024-02-26T11:28:28;95;84;
75946;PMS5003;64628;50.104;14.614;2024-02-26T11:30:54;120;112;
75946;PMS5003;64628;50.104;14.614;2024-02-26T11:33:20;201;193;
75946;PMS5003;64628;50.104;14.614;2024-02-26T11:35:45;180;173;
75946;PMS5003;64628;50.104;14.614;2024-02-26T11:38:12;227;216;
75946;PMS5003;64628;50.104;14.614;2024-02-26T11:40:38;239;232;
75946;PMS5003;64628;50.104;14.614;2024-02-26T11:43:01;142;136;
75946;PMS5003;64628;50.104;14.614;2024-02-26T11:47:55;77;68;
75946;PMS5003;64628;50.104;14.614;2024-02-26T11:52:42;80;74;
75946;PMS5003;64628;50.104;14.614;2024-02-26T11:55:07;88;74;
75946;PMS5003;64628;50.104;14.614;2024-02-26T12:00:10;78;67;
75946;PMS5003;64628;50.104;14.614;2024-02-26T12:04:49;82;70;
75946;PMS5003;64628;50.104;14.614;2024-02-26T12:07:15;78;66;
75946;PMS5003;64628;50.104;14.614;2024-02-26T12:09:40;78;72;
75946;PMS5003;64628;50.104;14.614;2024-02-26T12:12:06;84;63;
75946;PMS5003;64628;50.104;14.614;2024-02-26T12:14:32;86;67;
75946;PMS5003;64628;50.104;14.614;2024-02-26T12:16:56;75;61;
75946;PMS5003;64628;50.104;14.614;2024-02-26T12:19:22;78;65;
75946;PMS5003;64628;50.104;14.614;2024-02-26T12:21:50;89;70;
75946;PMS5003;64628;50.104;14.614;2024-02-26T12:24:14;77;68;
75946;PMS5003;64628;50.104;14.614;2024-02-26T12:26:38;73;66;
75946;PMS5003;64628;50.104;14.614;2024-02-26T12:29:04;82;70;
75946;PMS5003;64628;50.104;14.614;2024-02-26T12:31:30;82;64;
75946;PMS5003;64628;50.104;14.614;2024-02-26T12:33:55;77;65;
75946;PMS5003;64628;50.104;14.614;2024-02-26T12:36:20;81;67;
75946;PMS5003;64628;50.104;14.614;2024-02-26T12:38:46;78;64;
75946;PMS5003;64628;50.104;14.614;2024-02-26T12:41:12;79;65;
75946;PMS5003;64628;50.104;14.614;2024-02-26T12:43:37;92;72;
75946;PMS5003;64628;50.104;14.614;2024-02-26T12:46:02;76;62;
75946;PMS5003;64628;50.104;14.614;2024-02-26T12:48:28;96;77;
75946;PMS5003;64628;50.104;14.614;2024-02-26T12:50:54;77;68;
75946;PMS5003;64628;50.104;14.614;2024-02-26T12:53:19;79;64;
75946;PMS5003;64628;50.104;14.614;2024-02-26T12:55:44;73;59;
75946;PMS5003;64628;50.104;14.614;2024-02-26T12:58:09;69;57;
75946;PMS5003;64628;50.104;14.614;2024-02-26T13:00:35;68;62;
75946;PMS5003;64628;50.104;14.614;2024-02-26T13:03:00;70;58;
75946;PMS5003;64628;50.104;14.614;2024-02-26T13:05:25;67;55;
75946;PMS5003;64628;50.104;14.614;2024-02-26T13:07:50;76;67;
75946;PMS5003;64628;50.104;14.614;2024-02-26T13:10:16;82;67;
75946;PMS5003;64628;50.104;14.614;2024-02-26T13:12:43;72;59;
75946;PMS5003;64628;50.104;14.614;2024-02-26T13:15:08;239;224;
75946;PMS5003;64628;50.104;14.614;2024-02-26T13:17:33;111;99;
75946;PMS5003;64628;50.104;14.614;2024-02-26T13:19:59;107;103;
75946;PMS5003;64628;50.104;14.614;2024-02-26T13:22:24;114;104;
75946;PMS5003;64628;50.104;14.614;2024-02-26T13:24:53;104;95;
75946;PMS5003;64628;50.104;14.614;2024-02-26T13:27:20;134;114;
75946;PMS5003;64628;50.104;14.614;2024-02-26T13:29:42;141;131;
75946;PMS5003;64628;50.104;14.614;2024-02-26T13:32:07;119;104;
75946;PMS5003;64628;50.104;14.614;2024-02-26T13:34:32;177;168;
75946;PMS5003;64628;50.104;14.614;2024-02-26T13:36:57;297;283;
75946;PMS5003;64628;50.104;14.614;2024-02-26T13:39:22;382;376;
75946;PMS5003;64628;50.104;14.614;2024-02-26T13:41:48;243;234;
75946;PMS5003;64628;50.104;14.614;2024-02-26T13:44:14;95;85;
75946;PMS5003;64628;50.104;14.614;2024-02-26T13:46:39;113;104;
75946;PMS5003;64628;50.104;14.614;2024-02-26T13:49:04;87;75;
75946;PMS5003;64628;50.104;14.614;2024-02-26T13:51:30;80;62;
75946;PMS5003;64628;50.104;14.614;2024-02-26T13:53:55;81;67;
75946;PMS5003;64628;50.104;14.614;2024-02-26T13:56:21;65;57;
75946;PMS5003;64628;50.104;14.614;2024-02-26T13:58:46;75;64;
75946;PMS5003;64628;50.104;14.614;2024-02-26T14:01:12;82;62;
75946;PMS5003;64628;50.104;14.614;2024-02-26T14:03:37;84;65;
75946;PMS5003;64628;50.104;14.614;2024-02-26T14:06:03;83;69;
75946;PMS5003;64628;50.104;14.614;2024-02-26T14:08:28;86;67;
75946;PMS5003;64628;50.104;14.614;2024-02-26T14:10:53;77;60;
75946;PMS5003;64628;50.104;14.614;2024-02-26T14:13:19;86;71;
75946;PMS5003;64628;50.104;14.614;2024-02-26T14:15:45;83;73;
75946;PMS5003;64628;50.104;14.614;2024-02-26T14:18:10;87;80;
75946;PMS5003;64628;50.104;14.614;2024-02-26T14:20:36;77;65;
75946;PMS5003;64628;50.104;14.614;2024-02-26T14:23:01;94;72;
75946;PMS5003;64628;50.104;14.614;2024-02-26T14:25:26;80;62;
75946;PMS5003;64628;50.104;14.614;2024-02-26T14:27:52;72;62;
75946;PMS5003;64628;50.104;14.614;2024-02-26T14:30:17;84;66;
75946;PMS5003;64628;50.104;14.614;2024-02-26T14:32:42;69;64;
75946;PMS5003;64628;50.104;14.614;2024-02-26T14:35:07;159;143;
75946;PMS5003;64628;50.104;14.614;2024-02-26T14:37:33;174;141;
75946;PMS5003;64628;50.104;14.614;2024-02-26T14:39:58;99;79;
75946;PMS5003;64628;50.104;14.614;2024-02-26T14:42:24;75;66;
75946;PMS5003;64628;50.104;14.614;2024-02-26T14:44:50;78;68;
75946;PMS5003;64628;50.104;14.614;2024-02-26T14:47:15;76;68;
75946;PMS5003;64628;50.104;14.614;2024-02-26T14:49:41;77;63;
75946;PMS5003;64628;50.104;14.614;2024-02-26T14:52:06;90;63;
75946;PMS5003;64628;50.104;14.614;2024-02-26T14:54:31;79;70;
75946;PMS5003;64628;50.104;14.614;2024-02-26T14:56:57;77;70;
75946;PMS5003;64628;50.104;14.614;2024-02-26T14:59:22;64;57;
75946;PMS5003;64628;50.104;14.614;2024-02-26T15:01:48;75;61;
75946;PMS5003;64628;50.104;14.614;2024-02-26T15:04:13;64;57;
75946;PMS5003;64628;50.104;14.614;2024-02-26T15:06:38;77;69;
75946;PMS5003;64628;50.104;14.614;2024-02-26T15:09:04;77;64;
75946;PMS5003;64628;50.104;14.614;2024-02-26T15:11:29;69;65;
75946;PMS5003;64628;50.104;14.614;2024-02-26T15:13:54;87;80;
75946;PMS5003;64628;50.104;14.614;2024-02-26T15:16:19;97;73;
75946;PMS5003;64628;50.104;14.614;2024-02-26T15:18:45;78;67;
75946;PMS5003;64628;50.104;14.614;2024-02-26T15:21:10;82;68;
75946;PMS5003;64628;50.104;14.614;2024-02-26T15:23:35;85;74;
75946;PMS5003;64628;50.104;14.614;2024-02-26T15:26:00;110;105;
75946;PMS5003;64628;50.104;14.614;2024-02-26T15:28:27;71;67;
75946;PMS5003;64628;50.104;14.614;2024-02-26T15:30:51;97;84;
75946;PMS5003;64628;50.104;14.614;2024-02-26T15:33:17;77;65;
75946;PMS5003;64628;50.104;14.614;2024-02-26T15:35:42;80;68;
75946;PMS5003;64628;50.104;14.614;2024-02-26T15:38:08;80;65;
75946;PMS5003;64628;50.104;14.614;2024-02-26T15:40:33;81;66;
75946;PMS5003;64628;50.104;14.614;2024-02-26T15:42:59;87;67;
75946;PMS5003;64628;50.104;14.614;2024-02-26T15:45:24;86;74;
75946;PMS5003;64628;50.104;14.614;2024-02-26T15:47:51;82;70;
75946;PMS5003;64628;50.104;14.614;2024-02-26T15:50:16;69;61;
75946;PMS5003;64628;50.104;14.614;2024-02-26T15:52:41;66;59;